sensor_id;sensor_type;location;lat;lon;timestamp;pressure;altitude;pressure_sealevel;temperature;humidity
71424;BME280;59240;51.370;-0.486;2023-05-09T00:01:17;101273.91;;;14.97;100.00
71424;BME280;59240;51.370;-0.486;2023-05-09T00:03:43;101273.91;;;14.97;100.00
71424;BME280;59240;51.370;-0.486;2023-05-09T00:06:10;101258.31;;;14.93;100.00
71424;BME280;59240;51.370;-0.486;2023-05-09T00:08:38;101244.53;;;14.86;100.00
71424;BME280;59240;51.370;-0.486;2023-05-09T00:11:06;101243.56;;;14.89;100.00
71424;BME280;59240;51.370;-0.486;2023-05-09T00:13:33;101260.72;;;14.99;100.00
71424;BME280;59240;51.370;-0.486;2023-05-09T00:16:00;101264.16;;;15.01;100.00
71424;BME280;59240;51.370;-0.486;2023-05-09T00:18:26;101258.91;;;15.01;100.00
71424;BME280;59240;51.370;-0.486;2023-05-09T00:20:55;101258.03;;;15.00;100.00
71424;BME280;59240;51.370;-0.486;2023-05-09T00:23:22;101258.91;;;15.01;100.00
71424;BME280;59240;51.370;-0.486;2023-05-09T00:25:49;101249.25;;;15.01;100.00
71424;BME280;59240;51.370;-0.486;2023-05-09T00:28:16;101245.72;;;15.02;100.00
71424;BME280;59240;51.370;-0.486;2023-05-09T00:30:42;101244.84;;;15.03;100.00
71424;BME280;59240;51.370;-0.486;2023-05-09T00:33:09;101240.41;;;15.05;100.00
71424;BME280;59240;51.370;-0.486;2023-05-09T00:35:36;101229.97;;;15.04;100.00
71424;BME280;59240;51.370;-0.486;2023-05-09T00:38:02;101225.50;;;15.06;100.00
71424;BME280;59240;51.370;-0.486;2023-05-09T00:40:29;101237.72;;;15.07;100.00
71424;BME280;59240;51.370;-0.486;2023-05-09T00:42:58;101225.50;;;15.06;100.00
71424;BME280;59240;51.370;-0.486;2023-05-09T00:45:24;101220.25;;;15.06;100.00
71424;BME280;59240;51.370;-0.486;2023-05-09T00:47:51;101220.25;;;15.06;100.00
71424;BME280;59240;51.370;-0.486;2023-05-09T00:50:18;101221.19;;;15.05;100.00
71424;BME280;59240;51.370;-0.486;2023-05-09T00:52:45;101227.34;;;15.04;100.00
71424;BME280;59240;51.370;-0.486;2023-05-09T00:55:12;101229.03;;;15.05;100.00
71424;BME280;59240;51.370;-0.486;2023-05-09T00:57:39;101209.13;;;14.99;100.00
71424;BME280;59240;51.370;-0.486;2023-05-09T01:00:06;101229.03;;;15.05;100.00
71424;BME280;59240;51.370;-0.486;2023-05-09T01:02:49;101227.34;;;15.04;100.00
71424;BME280;59240;51.370;-0.486;2023-05-09T01:05:18;101229.97;;;15.02;100.00
71424;BME280;59240;51.370;-0.486;2023-05-09T01:08:13;101215.97;;;15.03;100.00
71424;BME280;59240;51.370;-0.486;2023-05-09T01:10:47;101208.13;;;15.02;100.00
71424;BME280;59240;51.370;-0.486;2023-05-09T01:16:18;101216.91;;;15.01;100.00
71424;BME280;59240;51.370;-0.486;2023-05-09T01:21:39;101219.66;;;14.98;100.00
71424;BME280;59240;51.370;-0.486;2023-05-09T01:24:39;101209.16;;;14.98;100.00
71424;BME280;59240;51.370;-0.486;2023-05-09T01:27:36;101208.34;;;14.96;100.00
71424;BME280;59240;51.370;-0.486;2023-05-09T01:30:06;101205.03;;;14.91;100.00
71424;BME280;59240;51.370;-0.486;2023-05-09T01:32:34;101203.34;;;14.88;100.00
71424;BME280;59240;51.370;-0.486;2023-05-09T01:35:05;101200.13;;;14.80;100.00
71424;BME280;59240;51.370;-0.486;2023-05-09T01:37:35;101201.69;;;14.86;100.00
71424;BME280;59240;51.370;-0.486;2023-05-09T01:40:13;101205.28;;;14.83;100.00
71424;BME280;59240;51.370;-0.486;2023-05-09T01:42:50;101204.47;;;14.81;100.00
71424;BME280;59240;51.370;-0.486;2023-05-09T01:45:18;101190.69;;;14.74;100.00
71424;BME280;59240;51.370;-0.486;2023-05-09T01:47:46;101190.56;;;14.79;100.00
71424;BME280;59240;51.370;-0.486;2023-05-09T01:50:16;101196.72;;;14.78;100.00
71424;BME280;59240;51.370;-0.486;2023-05-09T01:52:46;101180.19;;;14.74;100.00
71424;BME280;59240;51.370;-0.486;2023-05-09T01:55:15;101189.81;;;14.75;100.00
71424;BME280;59240;51.370;-0.486;2023-05-09T01:57:43;101189.03;;;14.72;100.00
71424;BME280;59240;51.370;-0.486;2023-05-09T02:00:11;101193.44;;;14.71;100.00
71424;BME280;59240;51.370;-0.486;2023-05-09T02:02:40;101188.19;;;14.71;100.00
71424;BME280;59240;51.370;-0.486;2023-05-09T02:05:08;101186.34;;;14.73;100.00
71424;BME280;59240;51.370;-0.486;2023-05-09T02:07:37;101187.31;;;14.71;100.00
71424;BME280;59240;51.370;-0.486;2023-05-09T02:10:08;101193.44;;;14.71;100.00
71424;BME280;59240;51.370;-0.486;2023-05-09T02:12:34;101184.03;;;14.64;100.00
71424;BME280;59240;51.370;-0.486;2023-05-09T02:15:01;101193.50;;;14.68;100.00
71424;BME280;59240;51.370;-0.486;2023-05-09T02:17:28;101197.03;;;14.67;100.00
71424;BME280;59240;51.370;-0.486;2023-05-09T02:19:56;101197.03;;;14.67;100.00
71424;BME280;59240;51.370;-0.486;2023-05-09T02:22:22;101190.09;;;14.66;100.00
71424;BME280;59240;51.370;-0.486;2023-05-09T02:24:49;101186.56;;;14.67;100.00
71424;BME280;59240;51.370;-0.486;2023-05-09T02:27:16;101171.00;;;14.61;100.00
71424;BME280;59240;51.370;-0.486;2023-05-09T02:29:47;101186.47;;;14.70;100.00
71424;BME280;59240;51.370;-0.486;2023-05-09T02:32:17;101193.44;;;14.71;100.00
71424;BME280;59240;51.370;-0.486;2023-05-09T02:34:46;101175.25;;;14.65;100.00
71424;BME280;59240;51.370;-0.486;2023-05-09T02:37:14;101186.41;;;14.72;100.00
71424;BME280;59240;51.370;-0.486;2023-05-09T02:39:41;101184.66;;;14.72;100.00
71424;BME280;59240;51.370;-0.486;2023-05-09T02:42:10;101179.41;;;14.72;100.00
71424;BME280;59240;51.370;-0.486;2023-05-09T02:44:37;101175.00;;;14.73;100.00
71424;BME280;59240;51.370;-0.486;2023-05-09T02:47:06;101184.66;;;14.72;100.00
71424;BME280;59240;51.370;-0.486;2023-05-09T02:49:33;101187.22;;;14.74;100.00
71424;BME280;59240;51.370;-0.486;2023-05-09T02:52:00;101198.56;;;14.74;100.00
71424;BME280;59240;51.370;-0.486;2023-05-09T02:54:26;101184.59;;;14.74;100.00
71424;BME280;59240;51.370;-0.486;2023-05-09T02:56:53;101189.88;;;14.72;100.00
71424;BME280;59240;51.370;-0.486;2023-05-09T02:59:20;101186.34;;;14.73;100.00
71424;BME280;59240;51.370;-0.486;2023-05-09T03:01:46;101188.25;;;14.68;100.00
71424;BME280;59240;51.370;-0.486;2023-05-09T03:04:13;101200.38;;;14.72;100.00
71424;BME280;59240;51.370;-0.486;2023-05-09T03:06:39;101202.16;;;14.72;100.00
71424;BME280;59240;51.370;-0.486;2023-05-09T03:09:06;101196.97;;;14.70;100.00
71424;BME280;59240;51.370;-0.486;2023-05-09T03:11:34;101204.00;;;14.68;100.00
71424;BME280;59240;51.370;-0.486;2023-05-09T03:14:02;101200.56;;;14.66;100.00
71424;BME280;59240;51.370;-0.486;2023-05-09T03:16:29;101198.97;;;14.62;100.00
71424;BME280;59240;51.370;-0.486;2023-05-09T03:18:56;101200.78;;;14.60;100.00
71424;BME280;59240;51.370;-0.486;2023-05-09T03:21:23;101191.38;;;14.53;100.00
71424;BME280;59240;51.370;-0.486;2023-05-09T03:23:49;101194.00;;;14.53;100.00
71424;BME280;59240;51.370;-0.486;2023-05-09T03:26:16;101182.06;;;14.43;100.00
71424;BME280;59240;51.370;-0.486;2023-05-09T03:28:42;101191.56;;;14.48;100.00
71424;BME280;59240;51.370;-0.486;2023-05-09T03:31:09;101195.09;;;14.46;100.00
71424;BME280;59240;51.370;-0.486;2023-05-09T03:33:35;101186.50;;;14.41;100.00
71424;BME280;59240;51.370;-0.486;2023-05-09T03:36:02;101187.50;;;14.37;100.00
71424;BME280;59240;51.370;-0.486;2023-05-09T03:38:28;101182.34;;;14.34;100.00
71424;BME280;59240;51.370;-0.486;2023-05-09T03:40:55;101179.78;;;14.32;100.00
71424;BME280;59240;51.370;-0.486;2023-05-09T03:43:22;101175.50;;;14.30;100.00
71424;BME280;59240;51.370;-0.486;2023-05-09T03:45:48;101177.41;;;14.24;100.00
71424;BME280;59240;51.370;-0.486;2023-05-09T03:48:15;101175.75;;;14.22;100.00
71424;BME280;59240;51.370;-0.486;2023-05-09T03:50:41;101172.25;;;14.21;100.00
71424;BME280;59240;51.370;-0.486;2023-05-09T03:53:08;101182.88;;;14.17;100.00
71424;BME280;59240;51.370;-0.486;2023-05-09T03:55:34;101177.69;;;14.15;100.00
71424;BME280;59240;51.370;-0.486;2023-05-09T03:58:02;101171.53;;;14.16;100.00
71424;BME280;59240;51.370;-0.486;2023-05-09T04:00:28;101168.13;;;14.14;100.00
71424;BME280;59240;51.370;-0.486;2023-05-09T04:02:55;101163.69;;;14.16;100.00
71424;BME280;59240;51.370;-0.486;2023-05-09T04:05:22;101165.44;;;14.16;100.00
71424;BME280;59240;51.370;-0.486;2023-05-09T04:07:48;101164.59;;;14.15;100.00
71424;BME280;59240;51.370;-0.486;2023-05-09T04:10:15;101161.13;;;14.15;100.00
71424;BME280;59240;51.370;-0.486;2023-05-09T04:12:41;101151.66;;;14.09;100.00
71424;BME280;59240;51.370;-0.486;2023-05-09T04:15:08;101154.91;;;14.17;100.00
71424;BME280;59240;51.370;-0.486;2023-05-09T04:17:36;101162.72;;;14.19;100.00
71424;BME280;59240;51.370;-0.486;2023-05-09T04:20:03;101165.38;;;14.17;100.00
71424;BME280;59240;51.370;-0.486;2023-05-09T04:22:29;101142.09;;;14.08;100.00
71424;BME280;59240;51.370;-0.486;2023-05-09T04:24:56;101155.03;;;14.14;100.00
71424;BME280;59240;51.370;-0.486;2023-05-09T04:27:22;101151.63;;;14.11;100.00
71424;BME280;59240;51.370;-0.486;2023-05-09T04:29:49;101156.81;;;14.12;100.00
71424;BME280;59240;51.370;-0.486;2023-05-09T04:32:15;101162.16;;;14.09;100.00
71424;BME280;59240;51.370;-0.486;2023-05-09T04:34:42;101166.47;;;14.10;100.00
71424;BME280;59240;51.370;-0.486;2023-05-09T04:37:09;101156.91;;;14.09;100.00
71424;BME280;59240;51.370;-0.486;2023-05-09T04:39:36;101153.50;;;14.07;100.00
71424;BME280;59240;51.370;-0.486;2023-05-09T04:42:03;101142.22;;;14.04;100.00
71424;BME280;59240;51.370;-0.486;2023-05-09T04:44:30;101155.09;;;14.11;100.00
71424;BME280;59240;51.370;-0.486;2023-05-09T04:46:56;101136.13;;;14.03;100.00
71424;BME280;59240;51.370;-0.486;2023-05-09T04:49:23;101151.66;;;14.09;100.00
71424;BME280;59240;51.370;-0.486;2023-05-09T04:51:50;101143.88;;;14.06;100.00
71424;BME280;59240;51.370;-0.486;2023-05-09T04:54:16;101147.38;;;14.07;100.00
71424;BME280;59240;51.370;-0.486;2023-05-09T04:56:43;101126.69;;;13.98;100.00
71424;BME280;59240;51.370;-0.486;2023-05-09T04:59:09;101131.75;;;14.04;100.00
71424;BME280;59240;51.370;-0.486;2023-05-09T05:01:36;101134.44;;;14.02;100.00
71424;BME280;59240;51.370;-0.486;2023-05-09T05:04:03;101135.34;;;14.01;100.00
71424;BME280;59240;51.370;-0.486;2023-05-09T05:06:29;101137.00;;;14.04;100.00
71424;BME280;59240;51.370;-0.486;2023-05-09T05:08:57;101131.81;;;14.02;100.00
71424;BME280;59240;51.370;-0.486;2023-05-09T05:11:23;101130.03;;;14.03;100.00
71424;BME280;59240;51.370;-0.486;2023-05-09T05:13:50;101135.19;;;14.06;100.00
71424;BME280;59240;51.370;-0.486;2023-05-09T05:16:16;101133.38;;;14.08;100.00
71424;BME280;59240;51.370;-0.486;2023-05-09T05:18:43;101128.91;;;14.11;100.00
71424;BME280;59240;51.370;-0.486;2023-05-09T05:21:09;101128.81;;;14.14;100.00
71424;BME280;59240;51.370;-0.486;2023-05-09T05:23:36;101120.03;;;14.15;100.00
71424;BME280;59240;51.370;-0.486;2023-05-09T05:26:03;101123.34;;;14.20;100.00
71424;BME280;59240;51.370;-0.486;2023-05-09T05:28:29;101120.75;;;14.20;100.00
71424;BME280;59240;51.370;-0.486;2023-05-09T05:30:55;101119.94;;;14.18;100.00
71424;BME280;59240;51.370;-0.486;2023-05-09T05:33:22;101121.66;;;14.19;100.00
71424;BME280;59240;51.370;-0.486;2023-05-09T05:35:48;101115.56;;;14.19;100.00
71424;BME280;59240;51.370;-0.486;2023-05-09T05:38:15;101118.13;;;14.20;100.00
71424;BME280;59240;51.370;-0.486;2023-05-09T05:40:41;101103.41;;;14.16;100.00
71424;BME280;59240;51.370;-0.486;2023-05-09T05:43:08;101120.59;;;14.25;100.00
71424;BME280;59240;51.370;-0.486;2023-05-09T05:45:34;101111.88;;;14.24;100.00
71424;BME280;59240;51.370;-0.486;2023-05-09T05:48:02;101118.75;;;14.29;100.00
71424;BME280;59240;51.370;-0.486;2023-05-09T05:50:28;101119.56;;;14.31;100.00
71424;BME280;59240;51.370;-0.486;2023-05-09T05:52:55;101105.47;;;14.35;100.00
71424;BME280;59240;51.370;-0.486;2023-05-09T05:55:21;101120.22;;;14.37;100.00
71424;BME280;59240;51.370;-0.486;2023-05-09T05:57:48;101107.16;;;14.36;100.00
71424;BME280;59240;51.370;-0.486;2023-05-09T06:00:15;101121.66;;;14.47;100.00
71424;BME280;59240;51.370;-0.486;2023-05-09T06:02:42;101112.09;;;14.45;100.00
71424;BME280;59240;51.370;-0.486;2023-05-09T06:05:18;101119.00;;;14.49;100.00
71424;BME280;59240;51.370;-0.486;2023-05-09T06:07:45;101124.06;;;14.55;100.00
71424;BME280;59240;51.370;-0.486;2023-05-09T06:10:12;101134.31;;;14.61;100.00
71424;BME280;59240;51.370;-0.486;2023-05-09T06:12:38;101126.25;;;14.67;100.00
71424;BME280;59240;51.370;-0.486;2023-05-09T06:15:05;101117.44;;;14.70;100.00
71424;BME280;59240;51.370;-0.486;2023-05-09T06:17:33;101125.03;;;14.77;100.00
71424;BME280;59240;51.370;-0.486;2023-05-09T06:19:59;101125.78;;;14.81;100.00
71424;BME280;59240;51.370;-0.486;2023-05-09T06:22:26;101117.06;;;14.81;100.00
71424;BME280;59240;51.370;-0.486;2023-05-09T06:24:52;101116.13;;;14.82;100.00
71424;BME280;59240;51.370;-0.486;2023-05-09T06:27:19;101115.00;;;14.89;100.00
71424;BME280;59240;51.370;-0.486;2023-05-09T06:29:46;101110.59;;;14.91;100.00
71424;BME280;59240;51.370;-0.486;2023-05-09T06:32:12;101109.63;;;14.93;100.00
71424;BME280;59240;51.370;-0.486;2023-05-09T06:34:39;101094.00;;;14.90;100.00
71424;BME280;59240;51.370;-0.486;2023-05-09T06:37:07;101106.72;;;15.01;100.00
71424;BME280;59240;51.370;-0.486;2023-05-09T06:39:33;101100.63;;;15.00;100.00
71424;BME280;59240;51.370;-0.486;2023-05-09T06:42:00;101097.84;;;15.05;100.00
71424;BME280;59240;51.370;-0.486;2023-05-09T06:44:26;101093.34;;;15.09;100.00
71424;BME280;59240;51.370;-0.486;2023-05-09T06:46:53;101073.38;;;15.04;100.00
71424;BME280;59240;51.370;-0.486;2023-05-09T06:49:19;101077.44;;;15.13;100.00
71424;BME280;59240;51.370;-0.486;2023-05-09T06:51:46;101085.94;;;15.20;100.00
71424;BME280;59240;51.370;-0.486;2023-05-09T06:54:12;101086.66;;;15.25;100.00
71424;BME280;59240;51.370;-0.486;2023-05-09T06:56:39;101090.00;;;15.28;100.00
71424;BME280;59240;51.370;-0.486;2023-05-09T06:59:06;101092.34;;;15.36;100.00
71424;BME280;59240;51.370;-0.486;2023-05-09T07:01:33;101095.66;;;15.41;100.00
71424;BME280;59240;51.370;-0.486;2023-05-09T07:03:59;101094.59;;;15.47;100.00
71424;BME280;59240;51.370;-0.486;2023-05-09T07:06:26;101096.06;;;15.54;100.00
71424;BME280;59240;51.370;-0.486;2023-05-09T07:08:52;101096.78;;;15.57;100.00
71424;BME280;59240;51.370;-0.486;2023-05-09T07:11:19;101088.88;;;15.59;100.00
71424;BME280;59240;51.370;-0.486;2023-05-09T07:13:46;101082.59;;;15.63;100.00
71424;BME280;59240;51.370;-0.486;2023-05-09T07:16:13;101077.34;;;15.63;100.00
71424;BME280;59240;51.370;-0.486;2023-05-09T07:18:39;101071.09;;;15.67;100.00
71424;BME280;59240;51.370;-0.486;2023-05-09T07:21:06;101089.72;;;15.83;100.00
71424;BME280;59240;51.370;-0.486;2023-05-09T07:23:32;101085.31;;;15.83;100.00
71424;BME280;59240;51.370;-0.486;2023-05-09T07:25:59;101088.09;;;15.80;100.00
71424;BME280;59240;51.370;-0.486;2023-05-09T07:28:26;101087.28;;;15.78;100.00
71424;BME280;59240;51.370;-0.486;2023-05-09T07:30:56;101097.97;;;15.74;100.00
71424;BME280;59240;51.370;-0.486;2023-05-09T07:33:22;101087.63;;;15.69;100.00
71424;BME280;59240;51.370;-0.486;2023-05-09T07:35:49;101098.91;;;15.71;100.00
71424;BME280;59240;51.370;-0.486;2023-05-09T07:38:15;101096.38;;;15.70;100.00
71424;BME280;59240;51.370;-0.486;2023-05-09T07:40:42;101092.03;;;15.69;100.00
71424;BME280;59240;51.370;-0.486;2023-05-09T07:43:08;101086.59;;;15.73;100.00
71424;BME280;59240;51.370;-0.486;2023-05-09T07:45:35;101091.03;;;15.71;100.00
71424;BME280;59240;51.370;-0.486;2023-05-09T07:48:02;101088.94;;;15.81;100.00
71424;BME280;59240;51.370;-0.486;2023-05-09T07:50:28;101093.13;;;15.85;100.00
71424;BME280;59240;51.370;-0.486;2023-05-09T07:52:55;101072.31;;;15.80;100.00
71424;BME280;59240;51.370;-0.486;2023-05-09T07:55:22;101096.22;;;15.96;100.00
71424;BME280;59240;51.370;-0.486;2023-05-09T07:57:48;101094.56;;;15.94;100.00
71424;BME280;59240;51.370;-0.486;2023-05-09T08:00:15;101087.84;;;15.86;100.00
71424;BME280;59240;51.370;-0.486;2023-05-09T08:02:42;101084.31;;;15.88;100.00
71424;BME280;59240;51.370;-0.486;2023-05-09T08:05:08;101084.31;;;15.88;100.00
71424;BME280;59240;51.370;-0.486;2023-05-09T08:07:37;101088.50;;;15.92;100.00
71424;BME280;59240;51.370;-0.486;2023-05-09T08:10:03;101091.03;;;15.95;100.00
71424;BME280;59240;51.370;-0.486;2023-05-09T08:12:30;101090.25;;;15.93;100.00
71424;BME280;59240;51.370;-0.486;2023-05-09T08:14:57;101102.22;;;16.00;100.00
71424;BME280;59240;51.370;-0.486;2023-05-09T08:17:24;101108.38;;;15.99;100.00
71424;BME280;59240;51.370;-0.486;2023-05-09T08:19:51;101094.56;;;15.94;100.00
71424;BME280;59240;51.370;-0.486;2023-05-09T08:22:19;101102.78;;;16.08;100.00
71424;BME280;59240;51.370;-0.486;2023-05-09T08:24:46;101103.63;;;16.08;100.00
71424;BME280;59240;51.370;-0.486;2023-05-09T08:27:13;101098.47;;;16.05;100.00
71424;BME280;59240;51.370;-0.486;2023-05-09T08:29:41;101097.50;;;16.08;100.00
71424;BME280;59240;51.370;-0.486;2023-05-09T08:32:08;101092.00;;;16.14;100.00
71424;BME280;59240;51.370;-0.486;2023-05-09T08:34:34;101090.41;;;16.10;100.00
71424;BME280;59240;51.370;-0.486;2023-05-09T08:37:02;101103.06;;;16.22;100.00
71424;BME280;59240;51.370;-0.486;2023-05-09T08:39:29;101105.25;;;16.33;100.00
71424;BME280;59240;51.370;-0.486;2023-05-09T08:41:57;101099.94;;;16.34;100.00
71424;BME280;59240;51.370;-0.486;2023-05-09T08:44:26;101098.72;;;16.43;100.00
71424;BME280;59240;51.370;-0.486;2023-05-09T08:47:03;101104.56;;;16.50;100.00
71424;BME280;59240;51.370;-0.486;2023-05-09T08:49:30;101101.28;;;16.45;100.00
71424;BME280;59240;51.370;-0.486;2023-05-09T08:51:56;101095.06;;;16.47;100.00
71424;BME280;59240;51.370;-0.486;2023-05-09T08:54:24;101102.88;;;16.49;100.00
71424;BME280;59240;51.370;-0.486;2023-05-09T08:56:51;101095.91;;;16.48;100.00
71424;BME280;59240;51.370;-0.486;2023-05-09T08:59:17;101094.97;;;16.49;100.00
71424;BME280;59240;51.370;-0.486;2023-05-09T09:01:44;101087.34;;;16.42;100.00
71424;BME280;59240;51.370;-0.486;2023-05-09T09:04:11;101087.72;;;16.54;100.00
71424;BME280;59240;51.370;-0.486;2023-05-09T09:06:38;101091.50;;;16.48;100.00
71424;BME280;59240;51.370;-0.486;2023-05-09T09:09:06;101093.41;;;16.65;100.00
71424;BME280;59240;51.370;-0.486;2023-05-09T09:11:36;101083.13;;;16.59;100.00
71424;BME280;59240;51.370;-0.486;2023-05-09T09:14:24;101081.00;;;16.68;100.00
71424;BME280;59240;51.370;-0.486;2023-05-09T09:16:54;101079.88;;;16.74;100.00
71424;BME280;59240;51.370;-0.486;2023-05-09T09:19:25;101073.59;;;16.78;100.00
71424;BME280;59240;51.370;-0.486;2023-05-09T09:21:56;101076.63;;;16.89;100.00
71424;BME280;59240;51.370;-0.486;2023-05-09T09:24:24;101077.22;;;16.96;99.97
71424;BME280;59240;51.370;-0.486;2023-05-09T09:26:51;101074.50;;;16.98;99.76
71424;BME280;59240;51.370;-0.486;2023-05-09T09:29:18;101069.09;;;17.01;99.98
71424;BME280;59240;51.370;-0.486;2023-05-09T09:31:46;101063.78;;;17.21;100.00
71424;BME280;59240;51.370;-0.486;2023-05-09T09:34:21;101062.31;;;17.34;100.00
71424;BME280;59240;51.370;-0.486;2023-05-09T09:36:49;101061.75;;;17.46;99.43
71424;BME280;59240;51.370;-0.486;2023-05-09T09:39:15;101060.91;;;17.46;98.00
71424;BME280;59240;51.370;-0.486;2023-05-09T09:41:42;101061.47;;;17.53;98.73
71424;BME280;59240;51.370;-0.486;2023-05-09T09:44:15;101049.84;;;17.57;99.38
71424;BME280;59240;51.370;-0.486;2023-05-09T09:46:48;101044.94;;;17.68;99.88
71424;BME280;59240;51.370;-0.486;2023-05-09T09:49:20;101031.44;;;17.75;99.14
71424;BME280;59240;51.370;-0.486;2023-05-09T09:51:55;101042.31;;;18.23;100.00
71424;BME280;59240;51.370;-0.486;2023-05-09T09:54:22;101039.84;;;18.37;97.90
71424;BME280;59240;51.370;-0.486;2023-05-09T09:56:51;101036.13;;;18.41;97.24
71424;BME280;59240;51.370;-0.486;2023-05-09T09:59:21;101036.66;;;18.48;96.82
71424;BME280;59240;51.370;-0.486;2023-05-09T10:02:00;101042.50;;;18.54;100.00
71424;BME280;59240;51.370;-0.486;2023-05-09T10:04:38;101036.75;;;18.81;100.00
71424;BME280;59240;51.370;-0.486;2023-05-09T10:07:08;101031.72;;;19.09;97.09
71424;BME280;59240;51.370;-0.486;2023-05-09T10:09:40;101030.72;;;19.28;94.88
71424;BME280;59240;51.370;-0.486;2023-05-09T10:12:07;101018.63;;;19.24;94.91
71424;BME280;59240;51.370;-0.486;2023-05-09T10:14:35;101023.16;;;19.22;95.21
71424;BME280;59240;51.370;-0.486;2023-05-09T10:17:03;101011.16;;;18.99;93.00
71424;BME280;59240;51.370;-0.486;2023-05-09T10:19:31;101035.50;;;18.88;92.64
71424;BME280;59240;51.370;-0.486;2023-05-09T10:22:09;101016.56;;;18.80;100.00
71424;BME280;59240;51.370;-0.486;2023-05-09T10:27:10;101020.00;;;18.82;95.80
71424;BME280;59240;51.370;-0.486;2023-05-09T10:29:40;101015.56;;;18.82;93.80
71424;BME280;59240;51.370;-0.486;2023-05-09T10:32:44;101017.50;;;18.79;100.00
71424;BME280;59240;51.370;-0.486;2023-05-09T10:35:15;101008.47;;;18.66;94.50
71424;BME280;59240;51.370;-0.486;2023-05-09T10:37:44;101009.25;;;18.50;91.80
71424;BME280;59240;51.370;-0.486;2023-05-09T10:40:11;101001.97;;;18.38;91.54
71424;BME280;59240;51.370;-0.486;2023-05-09T10:42:43;101003.22;;;18.31;95.80
71424;BME280;59240;51.370;-0.486;2023-05-09T10:45:11;100996.25;;;18.30;92.48
71424;BME280;59240;51.370;-0.486;2023-05-09T10:47:39;101001.13;;;18.38;91.04
71424;BME280;59240;51.370;-0.486;2023-05-09T10:50:07;101012.47;;;18.40;91.70
71424;BME280;59240;51.370;-0.486;2023-05-09T11:00:46;100992.06;;;18.26;91.54
71424;BME280;59240;51.370;-0.486;2023-05-09T11:03:14;101000.34;;;18.36;91.95
71424;BME280;59240;51.370;-0.486;2023-05-09T11:05:40;100988.66;;;18.41;90.60
71424;BME280;59240;51.370;-0.486;2023-05-09T11:10:51;100996.38;;;18.62;90.56
71424;BME280;59240;51.370;-0.486;2023-05-09T11:13:23;100991.50;;;18.71;95.85
71424;BME280;59240;51.370;-0.486;2023-05-09T11:18:30;100990.03;;;18.48;89.50
71424;BME280;59240;51.370;-0.486;2023-05-09T11:20:56;100983.81;;;18.32;89.57
71424;BME280;59240;51.370;-0.486;2023-05-09T11:23:28;100985.31;;;18.20;94.28
71424;BME280;59240;51.370;-0.486;2023-05-09T11:26:06;100994.28;;;18.16;98.96
71424;BME280;59240;51.370;-0.486;2023-05-09T11:28:35;100983.19;;;18.10;91.18
71424;BME280;59240;51.370;-0.486;2023-05-09T11:31:13;100986.09;;;18.05;99.47
71424;BME280;59240;51.370;-0.486;2023-05-09T11:33:41;100986.22;;;18.02;91.18
71424;BME280;59240;51.370;-0.486;2023-05-09T11:36:26;100967.44;;;17.91;98.93
71424;BME280;59240;51.370;-0.486;2023-05-09T11:39:08;100977.13;;;17.90;96.14
71424;BME280;59240;51.370;-0.486;2023-05-09T11:41:42;100979.94;;;17.87;98.18
71424;BME280;59240;51.370;-0.486;2023-05-09T11:44:17;100980.69;;;17.89;98.11
71424;BME280;59240;51.370;-0.486;2023-05-09T11:46:45;100973.59;;;17.91;91.14
71424;BME280;59240;51.370;-0.486;2023-05-09T11:49:12;100956.03;;;17.90;91.18
71424;BME280;59240;51.370;-0.486;2023-05-09T11:51:40;100957.41;;;17.99;90.96
71424;BME280;59240;51.370;-0.486;2023-05-09T11:54:07;100941.50;;;18.00;91.40
71424;BME280;59240;51.370;-0.486;2023-05-09T11:56:36;100970.13;;;18.25;89.92
71424;BME280;59240;51.370;-0.486;2023-05-09T11:59:03;100963.78;;;18.45;89.59
71424;BME280;59240;51.370;-0.486;2023-05-09T12:01:30;100951.72;;;18.41;89.45
71424;BME280;59240;51.370;-0.486;2023-05-09T12:03:57;100965.38;;;18.67;89.77
71424;BME280;59240;51.370;-0.486;2023-05-09T12:06:24;100963.53;;;18.84;90.05
71424;BME280;59240;51.370;-0.486;2023-05-09T12:08:55;100953.97;;;19.15;88.23
71424;BME280;59240;51.370;-0.486;2023-05-09T12:11:25;100949.34;;;19.19;88.58
71424;BME280;59240;51.370;-0.486;2023-05-09T12:13:54;100958.47;;;19.45;88.34
71424;BME280;59240;51.370;-0.486;2023-05-09T12:16:21;100934.88;;;19.57;87.45
71424;BME280;59240;51.370;-0.486;2023-05-09T12:18:49;100943.88;;;19.85;88.60
71424;BME280;59240;51.370;-0.486;2023-05-09T12:21:17;100943.81;;;20.01;86.44
71424;BME280;59240;51.370;-0.486;2023-05-09T12:23:47;100944.84;;;20.28;91.50
71424;BME280;59240;51.370;-0.486;2023-05-09T12:26:18;100939.66;;;20.41;85.78
71424;BME280;59240;51.370;-0.486;2023-05-09T12:28:46;100946.84;;;20.39;86.73
71424;BME280;59240;51.370;-0.486;2023-05-09T12:31:13;100941.53;;;20.25;84.72
71424;BME280;59240;51.370;-0.486;2023-05-09T12:33:39;100939.78;;;20.09;85.04
71424;BME280;59240;51.370;-0.486;2023-05-09T12:36:08;100935.22;;;19.97;87.08
71424;BME280;59240;51.370;-0.486;2023-05-09T12:38:36;100934.16;;;19.85;84.12
71424;BME280;59240;51.370;-0.486;2023-05-09T12:41:08;100933.81;;;19.76;88.78
71424;BME280;59240;51.370;-0.486;2023-05-09T12:43:55;100937.53;;;19.57;84.09
71424;BME280;59240;51.370;-0.486;2023-05-09T12:46:21;100931.88;;;19.48;84.78
71424;BME280;59240;51.370;-0.486;2023-05-09T12:48:48;100926.06;;;19.41;84.70
71424;BME280;59240;51.370;-0.486;2023-05-09T12:51:19;100924.03;;;19.46;89.89
71424;BME280;59240;51.370;-0.486;2023-05-09T12:53:46;100928.38;;;19.47;84.36
71424;BME280;59240;51.370;-0.486;2023-05-09T12:56:18;100917.22;;;19.42;90.07
71424;BME280;59240;51.370;-0.486;2023-05-09T13:01:17;100922.25;;;19.31;83.63
71424;BME280;59240;51.370;-0.486;2023-05-09T13:03:43;100918.88;;;19.29;84.03